Weather reports worldwide

Advertisment
Polinya, Spain (8287): temperature & dewpoint: 16.06.2018 15:00:00 - 22.06.2018 15:00:00 (CEST)Polinya, Spain (8287): wind speed & gusts: 16.06.2018 15:00:00 - 22.06.2018 15:00:00 (CEST)Polinya, Spain (8287): wind direction: 16.06.2018 15:00:00 - 22.06.2018 15:00:00 (CEST)Polinya, Spain (8287): precipitation: 16.06.2018 15:00:00 - 22.06.2018 15:00:00 (CEST)
Date & Time tt [°C] td [°C] ff [km/h] ff [kn] fx [km/h] fx [kn] dd rr [mm]
22.06.2018 15:00:00 - - - - - - - -
22.06.2018 14:00:00 30,5 12,4 13 7 24 13 E -
22.06.2018 13:00:00 31,1 13,4 10 5 20 11 ESE 0,0
22.06.2018 12:00:00 31,3 11,1 4 2 11 6 E 0,0
22.06.2018 11:00:00 29,5 12,8 0 0 13 7 N 0,0
22.06.2018 10:00:00 26,8 12,1 6 3 13 7 SW 0,0
22.06.2018 09:00:00 24,8 12,7 1 1 6 4 SW 0,0
22.06.2018 08:00:00 22,3 12,5 2 1 14 8 SSW -
22.06.2018 07:00:00 20,5 12,4 6 4 14 7 WSW 0,0
22.06.2018 06:00:00 20,4 13,2 8 5 15 8 SW 0,0
22.06.2018 05:00:00 19,9 14,0 3 2 13 7 WSW 0,0
22.06.2018 04:00:00 20,1 15,1 6 3 10 6 WSW 0,0
22.06.2018 03:00:00 20,0 14,8 5 3 10 6 SW 0,0
22.06.2018 02:00:00 20,4 15,4 0 0 10 6 N -
22.06.2018 01:00:00 20,7 16,1 0 0 8 5 SW 0,0
22.06.2018 00:00:00 21,5 16,6 7 4 11 6 NNE 0,0
21.06.2018 23:00:00 21,7 16,4 6 3 16 9 ENE 0,0
21.06.2018 22:00:00 22,7 15,8 8 4 18 10 E 0,0
21.06.2018 21:00:00 24,6 15,0 10 5 25 13 E 0,0
21.06.2018 20:00:00 26,3 14,0 14 7 26 14 E -
21.06.2018 19:00:00 27,5 12,3 16 9 28 15 E 0,0
21.06.2018 18:00:00 28,7 12,1 13 7 31 17 E 0,0
21.06.2018 17:00:00 28,9 11,9 15 8 27 15 E 0,0
21.06.2018 16:00:00 29,2 12,2 14 8 26 14 E 0,0
21.06.2018 15:00:00 29,9 12,7 11 6 23 13 E 0,0
21.06.2018 14:00:00 29,7 13,5 10 6 23 12 E -
21.06.2018 13:00:00 29,9 12,3 4 2 18 10 E 0,0
21.06.2018 12:00:00 28,3 12,2 3 2 9 5 ESE 0,0
21.06.2018 11:00:00 26,3 12,7 1 1 11 6 SW 0,0
21.06.2018 10:00:00 24,0 13,9 6 3 19 10 SW 0,0
21.06.2018 09:00:00 22,2 13,1 8 4 15 8 WSW 0,0
21.06.2018 08:00:00 20,1 12,6 7 4 14 8 WSW -
21.06.2018 07:00:00 18,2 13,1 1 1 10 5 SW 0,0
21.06.2018 06:00:00 17,9 14,0 5 3 11 6 WSW 0,0
21.06.2018 05:00:00 16,8 13,2 0 0 8 4 N 0,0
21.06.2018 04:00:00 17,8 13,4 0 0 10 6 N 0,0
21.06.2018 03:00:00 18,8 14,7 6 3 9 5 SW 0,0
21.06.2018 02:00:00 18,7 15,0 1 1 4 2 SW -
21.06.2018 01:00:00 19,2 15,3 3 2 5 3 NNE 0,0
21.06.2018 00:00:00 20,1 16,3 4 2 8 4 ENE 0,0
20.06.2018 23:00:00 20,9 16,5 6 4 12 6 E 0,0
20.06.2018 22:00:00 21,8 16,0 7 4 16 9 E 0,0
20.06.2018 21:00:00 23,6 15,1 9 5 24 13 E 0,0
20.06.2018 20:00:00 24,8 13,9 13 7 30 16 E -
20.06.2018 19:00:00 26,0 14,1 17 9 35 19 E 0,0
20.06.2018 18:00:00 26,8 13,6 16 9 32 18 E 0,0
20.06.2018 17:00:00 27,5 14,1 17 9 36 19 E 0,0
20.06.2018 16:00:00 27,4 14,0 16 9 34 18 ESE 0,0
20.06.2018 15:00:00 27,6 14,2 19 10 36 19 E 0,0
20.06.2018 14:00:00 28,3 13,8 11 6 26 14 ESE -
20.06.2018 13:00:00 28,5 14,7 10 5 22 12 E 0,0
20.06.2018 12:00:00 28,2 14,4 8 4 16 9 E 0,0
20.06.2018 11:00:00 27,2 13,6 4 2 10 5 NE 0,0
20.06.2018 10:00:00 25,9 14,0 0 0 11 6 NNW 0,0
20.06.2018 09:00:00 23,4 13,9 6 3 12 7 SW 0,0
20.06.2018 08:00:00 21,4 14,0 3 2 13 7 SW -
20.06.2018 07:00:00 19,8 13,3 6 4 11 6 WSW 0,0
20.06.2018 06:00:00 19,1 14,1 5 3 16 8 WSW 0,0
20.06.2018 05:00:00 20,0 14,8 3 2 10 6 WSW 0,0
20.06.2018 04:00:00 - - 7 4 12 7 SW 0,0
20.06.2018 03:00:00 20,1 14,9 6 4 14 8 SW 0,0
20.06.2018 02:00:00 20,4 15,2 8 4 13 7 WSW -
20.06.2018 01:00:00 20,1 15,1 3 2 9 5 SW 0,0
20.06.2018 00:00:00 21,0 14,6 1 1 12 6 SW 0,0
19.06.2018 23:00:00 21,6 15,0 8 4 16 9 ENE 0,0
19.06.2018 22:00:00 22,2 15,1 8 5 19 11 ENE 0,0
19.06.2018 21:00:00 23,5 14,2 12 7 33 18 E 0,0
19.06.2018 20:00:00 24,8 13,7 16 8 34 18 E -
19.06.2018 19:00:00 25,8 13,3 18 10 35 19 E 0,0
19.06.2018 18:00:00 26,3 13,5 19 10 34 19 E 0,0
19.06.2018 17:00:00 26,7 13,5 18 10 37 20 E 0,0
19.06.2018 16:00:00 27,0 13,4 16 9 34 19 ESE 0,0
19.06.2018 15:00:00 26,7 13,1 16 8 31 17 ESE 0,0
19.06.2018 14:00:00 27,2 13,6 12 7 26 14 ESE -
19.06.2018 13:00:00 27,3 15,3 9 5 20 11 ENE 0,0
19.06.2018 12:00:00 26,5 15,3 7 4 18 10 NE 0,0
19.06.2018 11:00:00 26,2 15,3 0 0 0 0 N 0,0
19.06.2018 10:00:00 24,2 14,0 0 0 0 0 N 0,0
19.06.2018 09:00:00 22,5 13,3 0 0 9 5 SSW 0,0
19.06.2018 08:00:00 19,9 12,4 0 0 6 3 SW -
19.06.2018 07:00:00 15,5 12,1 0 0 0 0 N 0,0
19.06.2018 06:00:00 15,0 11,3 0 0 0 0 N 0,0
19.06.2018 05:00:00 15,5 11,4 0 0 0 0 N 0,0
19.06.2018 04:00:00 16,5 11,9 0 0 0 0 N 0,0
19.06.2018 03:00:00 17,5 12,8 0 0 0 0 N 0,0
19.06.2018 02:00:00 18,8 13,0 0 0 10 5 N -
19.06.2018 01:00:00 19,4 14,9 0 0 7 4 N 0,0
19.06.2018 00:00:00 20,8 15,8 0 0 0 0 N 0,0
18.06.2018 23:00:00 21,6 16,3 2 1 8 4 N 0,0
18.06.2018 22:00:00 22,2 10,6 5 3 8 4 NNE 0,0
18.06.2018 21:00:00 24,4 11,3 5 3 16 9 E 0,0
18.06.2018 20:00:00 25,3 11,4 9 5 22 12 ESE -
18.06.2018 19:00:00 25,9 12,0 12 6 24 13 E 0,0
18.06.2018 18:00:00 26,9 13,0 13 7 29 16 ESE 0,0
18.06.2018 17:00:00 27,6 10,8 14 7 29 16 E 0,0
18.06.2018 16:00:00 28,0 11,1 12 7 24 13 ESE 0,0
18.06.2018 15:00:00 28,2 9,9 10 5 23 12 ESE 0,0
18.06.2018 14:00:00 27,6 9,4 9 5 21 11 E -
18.06.2018 13:00:00 27,7 9,6 10 5 19 10 NE 0,0
18.06.2018 12:00:00 26,2 10,4 11 6 22 12 E 0,0
18.06.2018 11:00:00 25,6 12,1 10 5 20 11 NE 0,0
18.06.2018 10:00:00 25,5 13,1 4 2 12 7 N 0,0
18.06.2018 09:00:00 23,1 13,6 0 0 4 2 N 0,0
18.06.2018 08:00:00 20,5 14,8 0 0 2 1 N -
18.06.2018 07:00:00 18,6 13,7 0 0 8 4 N 0,0
18.06.2018 06:00:00 19,0 14,4 3 2 10 5 WSW 0,0
18.06.2018 05:00:00 19,2 14,6 0 0 10 6 N 0,0
18.06.2018 04:00:00 18,9 15,0 1 0 10 5 SW 0,0
18.06.2018 03:00:00 19,3 15,2 0 0 10 5 N 0,0
18.06.2018 02:00:00 20,4 16,0 6 3 12 7 WSW -
18.06.2018 01:00:00 20,6 16,2 0 0 8 4 N 0,0
18.06.2018 00:00:00 21,3 16,5 0 0 13 7 N 0,0
17.06.2018 23:00:00 21,6 16,6 1 1 11 6 N 0,0
17.06.2018 22:00:00 22,2 15,8 4 2 19 10 NNE 0,0
17.06.2018 21:00:00 22,9 15,4 11 6 27 15 E 0,0
17.06.2018 20:00:00 24,0 14,1 16 9 32 17 E -
17.06.2018 19:00:00 25,0 14,1 16 9 34 18 E 0,0
17.06.2018 18:00:00 24,8 13,7 21 12 36 20 E 0,0
17.06.2018 17:00:00 25,9 14,0 22 12 40 22 E 0,0
17.06.2018 16:00:00 27,1 14,8 18 10 33 18 E 0,0
17.06.2018 15:00:00 26,3 12,7 18 10 31 17 E 0,0
17.06.2018 14:00:00 27,2 10,9 12 7 29 16 ESE -
17.06.2018 13:00:00 27,6 8,9 13 7 24 13 ENE 0,0
17.06.2018 12:00:00 27,1 11,6 9 5 18 10 NE 0,0
17.06.2018 11:00:00 26,8 11,7 3 2 13 7 ENE 0,0
17.06.2018 10:00:00 24,3 13,3 5 3 17 9 SW 0,0
17.06.2018 09:00:00 22,9 14,7 6 4 18 10 SW 0,0
17.06.2018 08:00:00 20,6 14,2 5 3 11 6 WSW -
17.06.2018 07:00:00 19,2 14,4 5 3 10 5 SW 0,0
17.06.2018 06:00:00 18,9 14,6 0 0 6 4 N 0,0
17.06.2018 05:00:00 19,2 14,9 0 0 8 4 N 0,0
17.06.2018 04:00:00 19,6 15,4 0 0 9 5 SW 0,0
17.06.2018 03:00:00 20,0 15,4 0 0 0 0 N 0,0
17.06.2018 02:00:00 20,9 15,9 0 0 6 3 N -
17.06.2018 01:00:00 21,7 16,0 1 0 8 4 NNW 0,0
17.06.2018 00:00:00 21,8 15,9 3 1 10 5 N 0,0
16.06.2018 23:00:00 21,8 15,6 2 1 9 5 N 0,0
16.06.2018 22:00:00 22,0 15,3 6 3 15 8 ENE 0,0
16.06.2018 21:00:00 22,6 14,7 10 5 23 13 E 0,0
16.06.2018 20:00:00 23,8 13,9 15 8 32 17 E -
16.06.2018 19:00:00 24,6 13,5 13 7 29 16 E 0,0
16.06.2018 18:00:00 25,5 14,3 15 8 29 15 E 0,0
16.06.2018 17:00:00 25,5 14,3 16 8 31 17 ESE 0,0
16.06.2018 16:00:00 26,4 16,6 13 7 28 15 E 0,0
16.06.2018 15:00:00 25,7 16,2 9 5 24 13 ENE 0,0

tt = temperature
td = dewpoint
ff = wind speed
fx = gusts
dd = wind direction
rr = precipitation

Next stations